createdAt,value
2022-08-22T00:00:15.978Z,2.45
2022-08-22T00:02:53.685Z,4.12
2022-08-22T00:02:56.264Z,1.00
2022-08-22T00:02:59.185Z,1.42
2022-08-22T00:03:11.562Z,1.87
2022-08-22T00:04:02.153Z,2.15
2022-08-22T00:07:11.444Z,2.70
2022-08-22T00:10:31.455Z,1.65
2022-08-22T00:14:01.316Z,1.60
2022-08-22T00:17:30.183Z,2.20
2022-08-22T00:20:39.230Z,1.52
2022-08-22T00:23:57.019Z,2.97
2022-08-22T00:27:07.714Z,2.47
2022-08-22T00:30:14.234Z,1.77
2022-08-22T00:33:34.670Z,2.15
2022-08-22T00:36:48.145Z,2.03
2022-08-22T00:40:35.982Z,1.58
2022-08-22T00:44:07.744Z,1.85
2022-08-22T00:47:58.414Z,2.50
2022-08-22T00:51:25.529Z,2.22
2022-08-22T00:57:52.631Z,3.17
2022-08-22T01:01:03.600Z,2.12
2022-08-22T01:04:23.755Z,2.15
2022-08-22T01:08:01.433Z,2.33
2022-08-22T01:15:10.013Z,2.35
2022-08-22T01:18:38.739Z,2.28
2022-08-22T01:21:50.941Z,2.55
2022-08-22T01:25:38.585Z,2.80
2022-08-22T01:29:00.128Z,3.58
2022-08-22T01:32:21.427Z,2.30
2022-08-22T01:35:37.343Z,2.10
2022-08-22T01:38:53.016Z,3.08
2022-08-22T01:42:15.210Z,2.75
2022-08-22T01:46:10.819Z,2.58
2022-08-22T01:49:16.272Z,1.95
2022-08-22T01:52:59.140Z,2.72
2022-08-22T01:56:12.890Z,4.15
2022-08-22T01:59:34.959Z,2.85
2022-08-22T02:03:01.569Z,2.05
2022-08-22T02:06:14.625Z,2.25
2022-08-22T02:09:46.677Z,3.10
2022-08-22T02:13:20.880Z,2.20
2022-08-22T02:16:38.136Z,2.03
2022-08-22T02:19:56.844Z,2.85
2022-08-22T02:23:50.944Z,1.90
2022-08-22T02:27:11.924Z,2.97
2022-08-22T02:30:22.679Z,2.28
2022-08-22T02:33:34.064Z,2.47
2022-08-22T02:36:50.698Z,2.20
2022-08-22T02:40:04.530Z,2.92
2022-08-22T02:43:19.052Z,1.95
2022-08-22T02:46:50.436Z,1.55
2022-08-22T02:50:12.899Z,2.15
2022-08-22T02:53:32.472Z,2.15
2022-08-22T02:56:43.976Z,2.30
2022-08-22T03:00:31.771Z,2.00
2022-08-22T03:03:42.487Z,2.28
2022-08-22T03:07:26.369Z,2.42
2022-08-22T03:10:36.619Z,2.65
2022-08-22T03:14:10.244Z,2.35
2022-08-22T03:17:45.183Z,2.28
2022-08-22T03:20:59.183Z,2.15
2022-08-22T03:24:57.713Z,2.78
2022-08-22T03:28:09.734Z,4.93
2022-08-22T03:32:00.602Z,3.33
2022-08-22T03:35:13.554Z,2.97
2022-08-22T03:38:38.478Z,2.62
2022-08-22T03:41:57.441Z,3.35
2022-08-22T03:45:21.857Z,3.30
2022-08-22T03:48:55.380Z,4.12
2022-08-22T03:52:10.971Z,3.03
2022-08-22T03:55:54.293Z,3.83
2022-08-22T03:59:10.313Z,2.70
2022-08-22T04:02:41.934Z,4.00
2022-08-22T04:05:56.955Z,3.05
2022-08-22T04:09:29.134Z,3.10
2022-08-22T04:12:53.759Z,5.05
2022-08-22T04:16:35.316Z,6.07
2022-08-22T04:20:03.791Z,2.90
2022-08-22T04:23:44.322Z,3.10
2022-08-22T04:27:04.601Z,3.40
2022-08-22T04:30:18.603Z,2.33
2022-08-22T04:33:25.366Z,4.28
2022-08-22T04:36:41.434Z,3.05
2022-08-22T04:39:59.760Z,3.53
2022-08-22T04:43:17.883Z,2.62
2022-08-22T04:50:04.457Z,2.78
2022-08-22T04:53:39.412Z,2.83
2022-08-22T04:57:14.229Z,2.47
2022-08-22T05:00:17.950Z,1.98
2022-08-22T05:03:25.254Z,4.55
2022-08-22T05:06:32.864Z,3.00
2022-08-22T05:09:39.193Z,3.35
2022-08-22T05:12:50.618Z,2.95
2022-08-22T05:15:59.361Z,3.60
2022-08-22T05:19:27.025Z,3.22
2022-08-22T05:22:40.775Z,4.25
2022-08-22T05:25:49.079Z,3.35
2022-08-22T05:29:00.883Z,4.65
2022-08-22T05:32:10.817Z,6.28
2022-08-22T05:35:16.825Z,3.10
2022-08-22T05:38:25.962Z,4.22
2022-08-22T05:41:33.098Z,5.65
2022-08-22T05:44:38.257Z,4.18
2022-08-22T05:47:55.146Z,8.25
2022-08-22T05:51:14.827Z,4.62
2022-08-22T05:54:33.705Z,4.45
2022-08-22T05:57:47.968Z,5.12
2022-08-22T06:01:02.209Z,6.20
2022-08-22T06:04:27.569Z,4.12
2022-08-22T06:07:50.722Z,6.40
2022-08-22T06:10:57.536Z,2.65
2022-08-22T06:14:14.651Z,4.57
2022-08-22T06:17:44.820Z,3.28
2022-08-22T06:21:12.303Z,6.40
2022-08-22T06:24:30.319Z,7.85
2022-08-22T06:27:34.840Z,3.15
2022-08-22T06:30:40.179Z,7.20
2022-08-22T06:33:54.972Z,4.73
2022-08-22T06:37:07.977Z,6.00
2022-08-22T06:40:16.965Z,4.70
2022-08-22T06:43:22.520Z,6.05
2022-08-22T06:46:30.972Z,5.25
2022-08-22T06:49:36.755Z,4.55
2022-08-22T06:52:57.537Z,4.40
2022-08-22T06:56:25.455Z,4.15
2022-08-22T06:59:35.754Z,4.65
2022-08-22T07:02:47.256Z,7.55
2022-08-22T07:06:23.370Z,6.78
2022-08-22T07:09:51.479Z,6.30
2022-08-22T07:12:59.072Z,4.40
2022-08-22T07:16:07.755Z,5.85
2022-08-22T07:19:33.533Z,5.07
2022-08-22T07:22:39.643Z,4.90
2022-08-22T07:26:15.597Z,7.68
2022-08-22T07:29:38.250Z,5.95
2022-08-22T07:33:26.423Z,5.97
2022-08-22T07:36:47.108Z,4.72
2022-08-22T07:40:25.356Z,6.75
2022-08-22T07:43:45.531Z,10.55
2022-08-22T07:46:57.008Z,8.57
2022-08-22T07:50:07.238Z,6.35
2022-08-22T07:53:26.035Z,5.70
2022-08-22T07:59:39.980Z,5.50
2022-08-22T08:02:53.777Z,6.15
2022-08-22T08:05:57.815Z,6.60
2022-08-22T08:09:22.797Z,6.18
2022-08-22T08:13:01.905Z,4.82
2022-08-22T08:16:18.307Z,6.72
2022-08-22T08:19:22.097Z,6.03
2022-08-22T08:22:50.768Z,5.20
2022-08-22T08:26:07.166Z,4.95
2022-08-22T08:29:10.639Z,5.62
2022-08-22T08:32:19.020Z,7.97
2022-08-22T08:36:02.092Z,5.40
2022-08-22T08:39:14.126Z,6.22
2022-08-22T08:43:18.650Z,6.37
2022-08-22T08:47:22.000Z,6.82
2022-08-22T08:50:43.977Z,6.18
2022-08-22T08:54:45.032Z,5.65
2022-08-22T08:58:51.715Z,5.07
2022-08-22T09:02:27.051Z,6.72
2022-08-22T09:05:48.940Z,4.53
2022-08-22T09:09:13.971Z,4.20
2022-08-22T09:13:11.670Z,4.82
2022-08-22T09:16:36.999Z,4.15
2022-08-22T09:20:19.575Z,2.92
2022-08-22T09:24:17.994Z,3.17
2022-08-22T09:27:55.632Z,6.50
2022-08-22T09:31:32.886Z,5.95
2022-08-22T09:34:51.993Z,5.47
2022-08-22T09:38:04.453Z,4.87
2022-08-22T09:41:46.815Z,5.20
2022-08-22T09:45:48.452Z,3.90
2022-08-22T09:50:19.725Z,5.10
2022-08-22T09:54:40.801Z,4.00
2022-08-22T09:58:49.292Z,4.50
2022-08-22T10:03:41.931Z,5.03
2022-08-22T10:08:15.156Z,5.50
2022-08-22T10:12:05.011Z,5.50
2022-08-22T10:15:47.809Z,5.32
2022-08-22T10:19:41.217Z,3.95
2022-08-22T10:23:24.117Z,3.60
2022-08-22T10:26:39.242Z,3.20
2022-08-22T10:30:07.036Z,5.03
2022-08-22T10:33:46.907Z,4.18
2022-08-22T10:38:01.652Z,4.85
2022-08-22T10:41:58.938Z,5.97
2022-08-22T10:45:41.055Z,5.37
2022-08-22T10:49:10.741Z,8.52
2022-08-22T10:52:33.104Z,5.97
2022-08-22T10:55:46.999Z,4.85
2022-08-22T10:59:06.024Z,3.50
2022-08-22T11:02:32.625Z,4.78
2022-08-22T11:05:43.261Z,4.05
2022-08-22T11:09:43.154Z,4.53
2022-08-22T11:13:25.603Z,4.85
2022-08-22T11:16:47.040Z,4.93
2022-08-22T11:20:19.861Z,5.10
2022-08-22T11:23:33.374Z,6.12
2022-08-22T11:27:02.655Z,6.62
2022-08-22T11:30:18.743Z,6.05
2022-08-22T11:33:46.460Z,6.43
2022-08-22T11:41:00.021Z,4.60
2022-08-22T11:44:22.481Z,4.62
2022-08-22T11:47:44.513Z,4.97
2022-08-22T11:51:14.827Z,4.05
2022-08-22T11:54:32.712Z,4.12
2022-08-22T11:57:44.813Z,8.10
2022-08-22T12:00:52.597Z,4.93
2022-08-22T12:04:03.453Z,5.68
2022-08-22T12:07:49.053Z,5.22
2022-08-22T12:12:00.422Z,4.60
2022-08-22T12:15:30.650Z,5.65
2022-08-22T12:18:52.714Z,4.45
2022-08-22T12:22:33.674Z,3.95
2022-08-22T12:25:39.595Z,4.85
2022-08-22T12:29:03.746Z,4.70
2022-08-22T12:32:32.122Z,7.40
2022-08-22T12:36:17.914Z,6.80
2022-08-22T12:39:41.152Z,5.50
2022-08-22T12:42:58.675Z,6.15
2022-08-22T12:46:38.567Z,4.30
2022-08-22T12:50:13.125Z,5.80
2022-08-22T12:53:34.023Z,5.07
2022-08-22T12:57:35.413Z,8.20
2022-08-22T13:00:47.428Z,5.50
2022-08-22T13:04:01.159Z,5.93
2022-08-22T13:07:10.529Z,5.60
2022-08-22T13:10:17.433Z,5.60
2022-08-22T13:13:56.717Z,6.32
2022-08-22T13:17:15.237Z,6.87
2022-08-22T13:20:41.793Z,5.68
2022-08-22T13:23:54.011Z,4.60
2022-08-22T13:27:05.785Z,6.20
2022-08-22T13:30:17.342Z,6.05
2022-08-22T13:33:33.486Z,4.75
2022-08-22T13:36:51.675Z,5.80
2022-08-22T13:40:08.949Z,6.40
2022-08-22T13:43:38.379Z,4.93
2022-08-22T13:47:13.186Z,5.53
2022-08-22T13:50:37.610Z,5.62
2022-08-22T13:54:12.543Z,6.70
2022-08-22T13:57:43.223Z,5.50
2022-08-22T14:01:43.884Z,5.72
2022-08-22T14:05:14.165Z,5.03
2022-08-22T14:08:28.565Z,5.03
2022-08-22T14:11:43.606Z,5.70
2022-08-22T14:14:56.851Z,5.75
2022-08-22T14:18:45.719Z,7.60
2022-08-22T14:22:32.514Z,6.12
2022-08-22T14:25:44.356Z,4.53
2022-08-22T14:28:56.858Z,6.15
2022-08-22T14:32:12.311Z,7.03
2022-08-22T14:35:52.823Z,6.32
2022-08-22T14:39:06.632Z,5.72
2022-08-22T14:42:20.081Z,5.50
2022-08-22T14:45:35.568Z,6.32
2022-08-22T14:49:16.557Z,5.28
2022-08-22T14:52:35.919Z,5.60
2022-08-22T14:55:41.964Z,4.03
2022-08-22T14:58:53.919Z,6.82
2022-08-22T15:02:13.048Z,5.65
2022-08-22T15:05:23.507Z,4.78
2022-08-22T15:08:46.431Z,5.50
2022-08-22T15:12:46.938Z,1.52
2022-08-22T15:16:46.180Z,1.12
2022-08-22T15:19:55.423Z,2.30
2022-08-22T15:23:20.886Z,1.37
2022-08-22T15:26:39.770Z,1.00
2022-08-22T15:30:06.780Z,1.50
2022-08-22T15:33:54.863Z,0.95
2022-08-22T15:37:09.944Z,3.40
2022-08-22T15:40:40.893Z,0.90
2022-08-22T15:43:49.318Z,1.05
2022-08-22T15:47:12.005Z,0.95
2022-08-22T15:51:05.355Z,1.12
2022-08-22T15:54:54.017Z,1.05
2022-08-22T15:58:24.815Z,0.88
2022-08-22T16:01:43.309Z,1.73
2022-08-22T16:05:36.923Z,1.17
2022-08-22T16:09:03.404Z,1.33
2022-08-22T16:12:28.683Z,0.77
2022-08-22T16:16:32.353Z,0.90
2022-08-22T16:19:39.965Z,0.93
2022-08-22T16:26:30.496Z,3.15
2022-08-22T16:29:42.347Z,1.17
2022-08-22T16:32:54.637Z,1.08
2022-08-22T16:36:21.582Z,1.00
2022-08-22T16:39:58.925Z,2.45
2022-08-22T16:43:23.584Z,1.17
2022-08-22T16:47:22.142Z,1.00
2022-08-22T16:51:05.829Z,1.00
2022-08-22T16:54:46.426Z,0.70
2022-08-22T16:58:09.389Z,1.12
2022-08-22T17:01:42.698Z,0.95
2022-08-22T17:05:22.724Z,0.50
2022-08-22T17:08:55.318Z,0.90
2022-08-22T17:12:16.747Z,2.12
2022-08-22T17:15:39.507Z,0.82
2022-08-22T17:19:28.630Z,1.80
2022-08-22T17:22:41.682Z,1.30
2022-08-22T17:25:53.436Z,1.70
2022-08-22T17:29:38.128Z,1.23
2022-08-22T17:33:19.892Z,1.60
2022-08-22T17:37:11.712Z,2.00
2022-08-22T17:40:36.206Z,2.58
2022-08-22T17:44:14.757Z,2.17
2022-08-22T17:47:49.509Z,1.12
2022-08-22T17:51:28.357Z,1.92
2022-08-22T17:54:49.169Z,1.25
2022-08-22T17:58:31.860Z,1.25
2022-08-22T18:01:56.416Z,1.92
2022-08-22T18:05:19.515Z,2.80
2022-08-22T18:12:51.703Z,1.30
2022-08-22T18:16:47.800Z,1.37
2022-08-22T18:20:05.912Z,1.30
2022-08-22T18:23:35.432Z,0.95
2022-08-22T18:27:08.287Z,1.85
2022-08-22T18:30:48.197Z,1.60
2022-08-22T18:34:05.135Z,1.20
2022-08-22T18:37:17.571Z,0.97
2022-08-22T18:40:30.526Z,0.95
2022-08-22T18:43:57.216Z,0.90
2022-08-22T18:47:15.970Z,1.70
2022-08-22T18:50:32.990Z,1.85
2022-08-22T18:53:46.150Z,1.65
2022-08-22T18:57:23.510Z,1.98
2022-08-22T19:00:54.962Z,5.60
2022-08-22T19:04:25.459Z,4.87
2022-08-22T19:07:55.486Z,2.87
2022-08-22T19:11:21.589Z,6.32
2022-08-22T19:14:43.676Z,6.10
2022-08-22T19:18:10.377Z,16.00
2022-08-22T19:25:11.625Z,6.50
2022-08-22T19:28:14.358Z,3.15
2022-08-22T19:31:25.087Z,2.30
2022-08-22T19:34:32.673Z,1.92
2022-08-22T19:37:52.957Z,1.40
2022-08-22T19:41:03.425Z,1.70
2022-08-22T19:44:37.553Z,1.27
2022-08-22T19:47:42.710Z,1.87
2022-08-22T19:50:45.281Z,0.70
2022-08-22T19:54:22.530Z,1.62
2022-08-22T19:57:55.503Z,29.05
2022-08-22T20:01:04.311Z,20.37
2022-08-22T20:04:27.063Z,25.52
2022-08-22T20:07:32.525Z,13.20
2022-08-22T20:10:48.192Z,11.07
2022-08-22T20:13:50.971Z,6.70
2022-08-22T20:17:05.762Z,3.30
2022-08-22T20:20:19.813Z,1.00
2022-08-22T20:23:41.290Z,0.98
2022-08-22T20:27:12.628Z,1.10
2022-08-22T20:30:40.749Z,1.80
2022-08-22T20:33:47.847Z,1.75
2022-08-22T20:37:15.794Z,1.00
2022-08-22T20:40:54.801Z,0.80
2022-08-22T20:43:57.338Z,1.02
2022-08-22T20:47:19.549Z,1.40
2022-08-22T20:50:28.810Z,1.12
2022-08-22T20:53:32.306Z,1.50
2022-08-22T20:56:37.200Z,1.00
2022-08-22T20:59:49.253Z,1.70
2022-08-22T21:03:02.405Z,2.08
2022-08-22T21:06:15.960Z,4.15
2022-08-22T21:09:40.167Z,1.20
2022-08-22T21:12:43.328Z,1.30
2022-08-22T21:15:56.174Z,1.67
2022-08-22T21:19:01.994Z,1.45
2022-08-22T21:22:34.101Z,4.97
2022-08-22T21:26:09.486Z,2.03
2022-08-22T21:29:14.660Z,1.50
2022-08-22T21:32:22.828Z,2.70
2022-08-22T21:35:33.325Z,2.10
2022-08-22T21:38:37.234Z,2.70
2022-08-22T21:41:44.096Z,2.37
2022-08-22T21:44:58.948Z,2.20
2022-08-22T21:48:02.530Z,2.78
2022-08-22T21:51:44.629Z,3.75
2022-08-22T21:54:48.233Z,2.33
2022-08-22T21:58:08.892Z,2.97
2022-08-22T22:01:34.905Z,2.40
2022-08-22T22:04:38.335Z,3.27
2022-08-22T22:07:43.317Z,3.55
2022-08-22T22:10:49.488Z,1.87
2022-08-22T22:14:14.258Z,3.58
2022-08-22T22:17:21.931Z,2.13
2022-08-22T22:20:28.687Z,2.87
2022-08-22T22:27:02.744Z,3.00
2022-08-22T22:30:10.247Z,3.17
2022-08-22T22:33:13.068Z,3.08
2022-08-22T22:36:24.242Z,3.55
2022-08-22T22:39:29.941Z,2.90
2022-08-22T22:42:33.138Z,2.65
2022-08-22T22:45:36.254Z,2.20
2022-08-22T22:48:42.036Z,3.75
2022-08-22T22:51:46.901Z,2.30
2022-08-22T22:54:51.097Z,2.97
2022-08-22T22:57:58.812Z,2.35
2022-08-22T23:01:10.702Z,3.22
2022-08-22T23:04:16.176Z,5.85
2022-08-22T23:07:24.566Z,3.00
2022-08-22T23:10:52.724Z,3.15
2022-08-22T23:14:12.948Z,2.40
2022-08-22T23:17:18.417Z,2.50
2022-08-22T23:20:21.667Z,2.65
2022-08-22T23:23:26.677Z,3.03
2022-08-22T23:26:30.305Z,2.17
2022-08-22T23:29:33.087Z,2.17
2022-08-22T23:32:37.551Z,1.70
2022-08-22T23:35:40.079Z,3.20
2022-08-22T23:38:48.833Z,3.33
2022-08-22T23:41:51.992Z,2.33
2022-08-22T23:44:59.749Z,2.87
2022-08-22T23:48:03.905Z,1.85
2022-08-22T23:51:09.037Z,2.45
2022-08-22T23:54:12.063Z,2.83
2022-08-22T23:57:14.864Z,2.22
